aviador You're here:

LFBL Decoded Metar

LIMOGES in FRANCE
Report Time2017-12-11 22:30:00
UTC Time2017-12-11 22:58:48
Flight Rules ifr IFR
Wind330° at 07 kt
W.Decomp.*RWY 03: 3.6 kt HW 6 kt LCW
W.Rank330° ranks 31
Current wind is above 330° avg. (5.7)
Visibility9999 m
Phenomena:Light Drizzle
Clouds:N/A
Expected CloudBase > 800 ft AGL from Temp-Dew spread
Ceiling500 ft
Temp03°C (ISA -9)
Dew Point01°C (87% RH)
AAT-1.3°C
QNH0999 hPa
Density Alt758 ft
Elevation1,319 ft
Report Wrong Elevation
Raw Report
LFBL 112230Z AUTO 33007KT CAVOK 03/01 Q0999 TEMPO 4000 -DZ
OVC005=

Extra information for LFBL:More info

Metar Taf Metar & Taf Last 4 Metars F.Rules Stats Wind Profile Meteogram Temp Stats Airport Information Weather charts Add Link Nearby VenuesMetar ALERT Operation Metar Decoded Social comments